Hawaii METAR Reports

 

PHOG - Kahului, Hawaii, USA
Distance from station: WNW 8mi, 13km
Updated: Sun, 17-Dec-2017 10:54pm HST
Few Clouds
Few Clouds
 Wind from SE
Wind: SE 7 mph , 11 km/h
Temperature: 64°F , 18°C
Dew Point: 63°F , 17°C
Humidity: 94%
Barometer: 29.93 inHg , 1013.5 hPa
Clouds: Few Clouds
Visibility: 10 miles , 16 km
Cloud details: Few Clouds 4000 ft
2017/12/18 08:54 PHOG 180854Z 14006KT 10SM FEW040 18/17 A2993 RMK AO2 SLP139 T01830172 50006 $
PHJH - Lahaina/West Mau, Hawaii, USA
Distance from station: WNW 24mi, 39km
Updated: Sun, 17-Dec-2017 5:45pm HST
NOT Current
Mostly Cloudy
Mostly Cloudy
 Wind from varies
Wind: varies 3 mph , 6 km/h
Temperature: 75°F , 24°C
Dew Point: 64°F , 18°C
Humidity: 69%
Barometer: 29.87 inHg , 1011.5 hPa
Clouds: Mostly Cloudy
Visibility: 15 miles , 24 km
Cloud details: Partly Cloudy 4500 ft
Mostly Cloudy 6500 ft
2017/12/18 03:45 PHJH 180345Z VRB03KT 15SM SCT045 BKN065 24/18 A2987 RMK LAST
 
PHNY - Lanai City Airpo, Hawaii, USA
Distance from station: W 40mi, 65km
Updated: Sun, 17-Dec-2017 10:56pm HST
Overcast
Overcast
 Wind from E
Wind: E 3 mph , 6 km/h
Temperature: 66°F , 19°C
Dew Point: 63°F , 17°C
Humidity: 88%
Barometer: 29.98 inHg , 1015.2 hPa
Clouds: Overcast
Visibility: 10 miles , 16 km
Cloud details: Mostly Cloudy 2900 ft
Mostly Cloudy 7500 ft
Overcast 9000 ft
2017/12/18 08:56 PHNY 180856Z AUTO 08003KT 10SM BKN029 BKN075 OVC090 19/17 A2998 RMK AO2 SLP136 T01940167 51007
PHMK - Molokai, Hawaii, USA
Distance from station: WNW 55mi, 88km
Updated: Sun, 17-Dec-2017 10:54pm HST
Few Clouds
Few Clouds
 Wind from calm
Wind: Calm
Temperature: 66°F , 19°C
Dew Point: 63°F , 17°C
Humidity: 88%
Barometer: 29.95 inHg , 1014.2 hPa
Clouds: Few Clouds
Visibility: 10 miles , 16 km
Cloud details: Few Clouds 5000 ft
2017/12/18 08:54 PHMK 180854Z AUTO 00000KT 10SM FEW050 19/17 A2995 RMK AO2 SLP143 T01940172 51010 TSNO $
 
PHKO - Kailua/Kona, Hawaii, USA
Distance from station: SSE 79mi, 128km
Updated: Sun, 17-Dec-2017 10:53pm HST
Mostly Cloudy
Mostly Cloudy
 Wind from N
Wind: N 6 mph , 9 km/h
Temperature: 75°F , 24°C
Dew Point: 64°F , 18°C
Humidity: 69%
Barometer: 29.90 inHg , 1012.5 hPa
Clouds: Mostly Cloudy
Visibility: 10 miles , 16 km
Cloud details: Mostly Cloudy 4500 ft
2017/12/18 08:53 PHKO 180853Z AUTO 01005KT 10SM BKN045 24/18 A2990 RMK AO2 SLP126 T02390178 51005 TSNO
PHSF - Bradshaw Aaf/Haw, Hawaii, USA
Distance from station: SE 90mi, 145km
Updated: Sun, 17-Dec-2017 4:56pm HST
NOT Current
Clear
Clear
 Wind from W
Wind: W 5 mph , 7 km/h
Temperature: 61°F , 16°C
Dew Point: 50°F , 10°C
Humidity: 68%
Barometer: 30.18 inHg , 1022 hPa
Clouds: Clear
Visibility: 10 miles , 16 km
2017/12/18 02:56 PHSF 180256Z AUTO 28004KT 10SM CLR 16/10 A3018 RMK AO2 SLP109 WND DATA ESTMD T01610102 53007 $
 
PHNG - Kaneohe Mcas, Hawaii, USA
Distance from station: WNW 102mi, 164km
Updated: Sun, 17-Dec-2017 10:57pm HST
Clear
Clear
 Wind from calm
Wind: Calm
Temperature: 70°F , 21°C
Dew Point: 64°F , 18°C
Humidity: 83%
Barometer: 29.90 inHg , 1012.5 hPa
Clouds: Clear
Visibility: 10 miles , 16 km
2017/12/18 08:57 PHNG 180857Z 00000KT 10SM CLR 21/18 A2990 RMK AO2 SLP120 T02060183 51009 $
PHNL - Honolulu, Hawaii, USA
Distance from station: WNW 108mi, 174km
Updated: Sun, 17-Dec-2017 10:53pm HST
Few Clouds
Few Clouds
 Wind from NNW
Wind: NNW 5 mph , 7 km/h
Temperature: 72°F , 22°C
Dew Point: 63°F , 17°C
Humidity: 73%
Barometer: 29.92 inHg , 1013.2 hPa
Clouds: Few Clouds
Visibility: 10 miles , 16 km
Cloud details: Few Clouds 3200 ft
2017/12/18 08:53 PHNL 180853Z 33004KT 10SM FEW032 22/17 A2992 RMK AO2 SLP133 T02220167 51009 $
 
PHTO - Hilo, Hawaii, USA
Distance from station: SE 114mi, 183km
Updated: Sun, 17-Dec-2017 11:02pm HST
Overcast
Overcast
 Wind from calm
Wind: Calm
Temperature: 72°F , 22°C
Dew Point: 70°F , 21°C
Humidity: 94%
Barometer: 29.92 inHg , 1013.2 hPa
Clouds: Overcast
Visibility: 9 miles , 14 km
Cloud details: Mostly Cloudy 2900 ft
Overcast 4000 ft
2017/12/18 09:02 PHTO 180902Z AUTO 00000KT 9SM BKN029 OVC040 22/21 A2992 RMK AO2 T02170206 TSNO
PHJR - Kalaeloa, Hawaii, USA
Distance from station: WNW 117mi, 189km
Updated: Sun, 17-Dec-2017 10:53pm HST
Clear
Clear
 Wind from NNE
Wind: NNE 5 mph , 7 km/h
Temperature: 66°F , 19°C
Dew Point: 63°F , 17°C
Humidity: 88%
Barometer: 29.94 inHg , 1013.9 hPa
Clouds: Clear
Visibility: 10 miles , 16 km
2017/12/18 08:53 PHJR 180853Z AUTO 03004KT 10SM CLR 19/17 A2994 RMK AO2 SLP143 T01940172 51008 TSNO $
 
PHHI - Wheeler Afb/Oahu, Hawaii, USA
Distance from station: WNW 120mi, 193km
Updated: Sat, 16-Dec-2017 6:56am HST
NOT Current
Clear
Clear
 Wind from NW
Wind: NW 6 mph , 9 km/h
Temperature: 59°F , 15°C
Dew Point: 59°F , 15°C
Humidity: 100%
Barometer: 29.86 inHg , 1011.2 hPa
Clouds: Clear
Visibility: 10 miles , 16 km
2017/12/16 16:56 PHHI 161656Z AUTO 32005KT 10SM CLR 15/15 A2986 RMK AO2 SLP110 T01540152 FZRANO $
PHLI - Lihue/Kauai Is, Hawaii, USA
Distance from station: WNW 209mi, 336km
Updated: Sun, 17-Dec-2017 10:53pm HST
Clear
Clear
 Wind from W
Wind: W 7 mph , 11 km/h
Temperature: 63°F , 17°C
Dew Point: 63°F , 17°C
Humidity: 100%
Barometer: 29.93 inHg , 1013.5 hPa
Clouds: Clear
Visibility: 10 miles , 16 km
2017/12/18 08:53 PHLI 180853Z AUTO 27006KT 10SM CLR 17/17 A2993 RMK AO2 SLP133 T01720172 51012 TSNO $
 
PHBK - Barking Sands/Ka, Hawaii, USA
Distance from station: WNW 237mi, 382km
Updated: Sun, 17-Dec-2017 10:56pm HST
Clear
Clear
 Wind from E
Wind: E 5 mph , 7 km/h
Temperature: 66°F , 19°C
Dew Point: 63°F , 17°C
Humidity: 88%
Barometer: 29.91 inHg , 1012.9 hPa
Clouds: Clear
Visibility: 10 miles , 16 km
2017/12/18 08:56 PHBK 180856Z AUTO 09004KT 10SM CLR 19/17 A2991 RMK AO2 SLP129 T01890172 51010